Time;durP1;ratioP1;P1;durP2;ratioP2;P2;SDS_P1;SDS_P2;PMS_P1;PMS_P2;Temp;Humidity;BMP_temperature;BMP_pressure;BME280_temperature;BME280_humidity;BME280_pressure;Samples;Min_cycle;Max_cycle;Signal;HPM_P1;HPM_P2
2021/08/05 00:00:28;;;;;;;4.45;4.03;;;16.80;1.00;;;;;;5070346;28;20488;-82
2021/08/05 00:02:54;;;;;;;4.85;4.45;;;16.80;1.00;;;;;;5070462;28;20032;-82
2021/08/05 00:05:20;;;;;;;8.52;4.53;;;16.80;1.00;;;;;;5069022;28;20111;-82
2021/08/05 00:07:45;;;;;;;8.05;4.60;;;16.90;1.00;;;;;;5071519;28;20097;-82
2021/08/05 00:10:11;;;;;;;5.95;5.10;;;16.80;1.00;;;;;;5071672;28;20046;-82
2021/08/05 00:12:37;;;;;;;7.85;4.60;;;16.70;1.00;;;;;;5070446;28;20073;-82
2021/08/05 00:15:03;;;;;;;7.40;5.20;;;16.80;1.00;;;;;;5069064;28;20370;-82
2021/08/05 00:17:28;;;;;;;8.13;4.80;;;16.90;1.00;;;;;;5069332;28;20115;-82
2021/08/05 00:19:54;;;;;;;7.00;5.30;;;16.80;1.00;;;;;;5070772;28;20092;-82
2021/08/05 00:22:20;;;;;;;7.68;5.40;;;16.80;1.00;;;;;;5069279;28;20040;-82
2021/08/05 00:24:45;;;;;;;6.85;5.05;;;16.80;1.00;;;;;;5070680;28;20040;-82
2021/08/05 00:27:11;;;;;;;6.88;6.18;;;16.80;1.00;;;;;;5070218;28;20392;-81
2021/08/05 00:29:37;;;;;;;8.80;5.68;;;16.80;1.00;;;;;;5069661;28;20036;-82
2021/08/05 00:32:03;;;;;;;10.50;5.97;;;16.80;1.00;;;;;;5070599;28;20028;-82
2021/08/05 00:34:28;;;;;;;8.82;5.53;;;16.90;1.00;;;;;;5071878;28;20032;-82
2021/08/05 00:36:54;;;;;;;6.40;5.80;;;17.00;1.00;;;;;;5069881;28;20025;-81
2021/08/05 00:39:19;;;;;;;7.05;5.28;;;17.10;1.00;;;;;;5070587;28;20115;-82
2021/08/05 00:41:45;;;;;;;6.95;5.07;;;17.10;1.00;;;;;;5068571;28;20086;-82
2021/08/05 00:44:11;;;;;;;7.90;4.90;;;17.10;1.00;;;;;;5069766;28;20120;-82
2021/08/05 00:46:36;;;;;;;5.20;4.38;;;17.20;1.00;;;;;;5071666;28;20100;-82
2021/08/05 00:49:02;;;;;;;5.40;3.60;;;17.30;1.00;;;;;;5069753;28;20021;-82
2021/08/05 00:51:28;;;;;;;6.57;3.88;;;17.30;1.00;;;;;;5070076;28;20032;-82
2021/08/05 00:53:54;;;;;;;5.10;4.07;;;17.30;1.00;;;;;;5069247;28;20111;-82
2021/08/05 00:56:20;;;;;;;6.15;4.18;;;17.30;1.00;;;;;;5067816;28;20112;-82
2021/08/05 00:58:46;;;;;;;6.55;4.15;;;17.30;1.00;;;;;;5070829;28;20017;-82
2021/08/05 01:01:18;;;;;;;5.28;4.75;;;17.20;1.00;;;;;;5068855;28;20043;-82
2021/08/05 01:03:46;;;;;;;8.45;4.72;;;17.20;1.00;;;;;;5069595;28;20056;-82
2021/08/05 01:07:09;;;;;;;8.90;4.63;;;17.30;1.00;;;;;;5068554;28;20550;-82
2021/08/05 01:10:03;;;;;;;5.38;4.88;;;17.10;1.00;;;;;;4928828;29;20507;-82
2021/08/05 01:12:49;;;;;;;7.53;4.97;;;17.10;1.00;;;;;;4930142;29;20031;-81
2021/08/05 01:15:22;;;;;;;8.35;5.13;;;16.90;1.00;;;;;;4930629;29;20037;-82
2021/08/05 01:17:53;;;;;;;9.52;5.32;;;16.80;1.00;;;;;;4930141;29;20032;-81
2021/08/05 01:20:22;;;;;;;6.85;4.38;;;16.70;1.00;;;;;;4930868;29;20454;-82
2021/08/05 01:23:26;;;;;;;6.93;4.45;;;16.70;1.00;;;;;;4930068;29;20047;-82
2021/08/05 01:26:06;;;;;;;4.43;4.03;;;16.60;1.00;;;;;;4930708;29;20420;-82
2021/08/05 01:28:36;;;;;;;6.20;3.85;;;16.70;1.00;;;;;;4931822;29;20524;-82
2021/08/05 01:31:04;;;;;;;5.53;3.83;;;16.70;1.00;;;;;;4930725;29;20551;-82
2021/08/05 01:33:31;;;;;;;9.63;4.07;;;16.80;1.00;;;;;;4929198;29;20036;-82
2021/08/05 01:35:58;;;;;;;6.97;3.67;;;16.80;1.00;;;;;;4930230;29;20058;-81
2021/08/05 01:38:24;;;;;;;3.78;3.47;;;16.90;1.00;;;;;;4930328;29;20035;-81
2021/08/05 01:40:51;;;;;;;3.88;3.25;;;16.90;1.00;;;;;;4930751;29;20400;-82
2021/08/05 01:43:19;;;;;;;4.05;3.65;;;16.90;1.00;;;;;;4930706;29;20623;-82
2021/08/05 01:45:46;;;;;;;5.05;3.55;;;17.00;1.00;;;;;;4979997;28;20047;-81
2021/08/05 01:48:13;;;;;;;5.03;3.45;;;17.10;1.00;;;;;;5062312;28;20123;-81
2021/08/05 01:50:43;;;;;;;3.92;3.55;;;17.10;1.00;;;;;;5069262;28;20028;-82
2021/08/05 01:53:09;;;;;;;3.60;3.30;;;17.10;1.00;;;;;;5053780;28;20033;-82
2021/08/05 01:55:35;;;;;;;3.83;3.53;;;17.10;1.00;;;;;;5053240;28;20071;-82
2021/08/05 01:58:00;;;;;;;5.47;3.22;;;17.10;1.00;;;;;;5068724;28;20071;-82
2021/08/05 02:00:26;;;;;;;8.75;3.72;;;17.20;1.00;;;;;;5068840;28;20127;-82
2021/08/05 02:02:55;;;;;;;4.22;3.65;;;17.20;1.00;;;;;;5068918;28;20103;-81
2021/08/05 02:05:23;;;;;;;5.00;3.70;;;17.30;1.00;;;;;;5069186;28;20025;-82
2021/08/05 02:07:58;;;;;;;4.65;3.65;;;17.30;1.00;;;;;;5069559;28;20481;-82
2021/08/05 02:10:31;;;;;;;5.57;4.13;;;17.10;1.00;;;;;;5050210;28;20032;-82
2021/08/05 02:13:17;;;;;;;5.38;3.78;;;17.10;1.00;;;;;;5070445;28;20036;-82
2021/08/05 02:15:47;;;;;;;4.80;3.72;;;17.10;1.00;;;;;;5071511;28;20035;-82
2021/08/05 02:18:14;;;;;;;4.80;3.55;;;17.10;1.00;;;;;;5070788;28;20025;-82
2021/08/05 02:20:43;;;;;;;6.78;3.70;;;17.20;1.00;;;;;;5073032;28;20093;-82
2021/08/05 02:23:11;;;;;;;6.88;4.03;;;17.30;1.00;;;;;;5072564;28;20025;-82
2021/08/05 02:25:39;;;;;;;4.07;3.60;;;17.30;1.00;;;;;;5072838;28;20032;-82
2021/08/05 02:28:05;;;;;;;5.05;3.67;;;17.20;1.00;;;;;;5072835;28;20025;-82
2021/08/05 02:30:31;;;;;;;7.82;4.18;;;17.20;1.00;;;;;;5072210;28;20396;-82
2021/08/05 02:32:57;;;;;;;4.15;3.75;;;17.20;1.00;;;;;;5072744;28;20024;-82
2021/08/05 02:35:23;;;;;;;4.10;3.70;;;17.10;1.00;;;;;;5072916;28;20021;-82
2021/08/05 02:37:49;;;;;;;5.18;4.03;;;17.00;1.00;;;;;;5072918;28;20032;-81
2021/08/05 02:40:16;;;;;;;5.03;3.83;;;16.90;1.00;;;;;;5073507;28;20024;-81
2021/08/05 02:42:42;;;;;;;4.13;3.83;;;16.90;1.00;;;;;;5071993;28;20108;-82
2021/08/05 02:45:09;;;;;;;4.63;3.72;;;16.80;1.00;;;;;;5072050;28;20028;-82
2021/08/05 02:47:35;;;;;;;6.28;3.95;;;16.80;1.00;;;;;;5072226;28;20044;-82
2021/08/05 02:50:05;;;;;;;6.38;3.92;;;16.90;1.00;;;;;;5071365;28;20063;-82
2021/08/05 02:52:32;;;;;;;4.72;4.32;;;16.90;1.00;;;;;;5073263;28;20488;-82
2021/08/05 02:54:58;;;;;;;7.15;3.88;;;16.90;1.00;;;;;;5069591;28;20021;-82
2021/08/05 02:57:24;;;;;;;5.93;4.50;;;16.80;1.00;;;;;;5070458;28;20516;-81
2021/08/05 02:59:50;;;;;;;4.82;4.43;;;16.80;1.00;;;;;;5070489;28;20028;-82
2021/08/05 03:02:16;;;;;;;7.30;4.93;;;16.80;1.00;;;;;;5057918;28;20616;-82
2021/08/05 03:04:42;;;;;;;7.65;4.25;;;16.70;1.00;;;;;;5073212;28;20025;-82
2021/08/05 03:07:09;;;;;;;5.75;4.00;;;16.70;1.00;;;;;;5072671;28;20085;-81
2021/08/05 03:09:35;;;;;;;7.32;4.30;;;16.70;1.00;;;;;;5071600;28;20035;-82
2021/08/05 03:12:00;;;;;;;5.00;4.18;;;16.60;1.00;;;;;;5071671;28;20111;-82
2021/08/05 03:14:26;;;;;;;6.45;4.57;;;16.60;1.00;;;;;;5070438;28;20389;-82
2021/08/05 03:16:52;;;;;;;7.22;4.40;;;16.60;1.00;;;;;;5070952;28;20119;-81
2021/08/05 03:19:18;;;;;;;6.55;4.72;;;16.50;1.00;;;;;;5073065;28;20434;-82
2021/08/05 03:21:43;;;;;;;6.53;4.50;;;16.50;1.00;;;;;;5071768;28;20119;-82
2021/08/05 03:24:09;;;;;;;6.20;4.82;;;16.50;1.00;;;;;;5071534;28;20078;-82
2021/08/05 03:26:35;;;;;;;8.05;4.95;;;16.60;1.00;;;;;;5071907;28;20039;-81
2021/08/05 03:29:00;;;;;;;5.18;4.60;;;16.60;1.00;;;;;;5071342;28;20055;-81
2021/08/05 03:31:26;;;;;;;7.07;4.68;;;16.70;1.00;;;;;;5073519;28;20430;-81
2021/08/05 03:33:52;;;;;;;6.53;4.95;;;16.70;1.00;;;;;;5069275;28;20408;-82
2021/08/05 03:36:17;;;;;;;6.07;4.95;;;16.70;1.00;;;;;;5069652;28;20032;-82
2021/08/05 03:38:43;;;;;;;5.38;4.88;;;16.80;1.00;;;;;;5070781;28;20514;-82
2021/08/05 03:41:09;;;;;;;6.72;5.00;;;16.80;1.00;;;;;;5070245;28;20040;-82
2021/08/05 03:43:34;;;;;;;5.50;4.63;;;16.80;1.00;;;;;;5072895;28;20017;-82
2021/08/05 03:46:00;;;;;;;8.02;5.20;;;16.90;1.00;;;;;;5071270;28;20037;-81
2021/08/05 03:48:26;;;;;;;6.07;5.47;;;16.90;1.00;;;;;;5071418;28;20447;-82
2021/08/05 03:50:52;;;;;;;5.78;5.28;;;17.00;1.00;;;;;;5070934;28;20439;-82
2021/08/05 03:53:17;;;;;;;6.53;5.93;;;17.00;1.00;;;;;;5069595;28;20516;-82
2021/08/05 03:55:43;;;;;;;6.22;5.20;;;17.00;1.00;;;;;;5072335;28;20039;-82
2021/08/05 03:58:09;;;;;;;6.47;5.78;;;17.00;1.00;;;;;;5071219;28;20027;-81
2021/08/05 04:00:36;;;;;;;6.70;6.00;;;17.10;1.00;;;;;;5071098;28;20071;-82
2021/08/05 04:03:02;;;;;;;8.02;5.50;;;17.10;1.00;;;;;;5070802;28;20043;-82
2021/08/05 04:05:27;;;;;;;7.93;6.05;;;17.10;1.00;;;;;;5070720;28;20028;-82
2021/08/05 04:07:53;;;;;;;6.60;5.63;;;17.10;1.00;;;;;;5068376;28;20035;-82
2021/08/05 04:10:19;;;;;;;6.20;5.20;;;17.00;1.00;;;;;;5072732;28;20116;-81
2021/08/05 04:12:45;;;;;;;5.80;5.22;;;17.00;1.00;;;;;;5070592;28;20481;-82
2021/08/05 04:15:11;;;;;;;6.30;5.70;;;17.00;1.00;;;;;;5069052;28;20500;-81
2021/08/05 04:17:38;;;;;;;6.07;5.50;;;17.00;1.00;;;;;;5069138;28;20031;-82
2021/08/05 04:20:06;;;;;;;6.75;5.68;;;17.00;1.00;;;;;;5070934;28;20481;-82
2021/08/05 04:22:31;;;;;;;7.93;5.80;;;17.10;1.00;;;;;;5072046;28;20036;-82
2021/08/05 04:24:57;;;;;;;6.20;5.57;;;17.10;1.00;;;;;;5070195;28;20420;-82
2021/08/05 04:27:23;;;;;;;6.68;5.97;;;17.20;1.00;;;;;;5069998;28;20032;-82
2021/08/05 04:29:49;;;;;;;8.65;6.50;;;17.20;1.00;;;;;;5070128;28;20024;-81
2021/08/05 04:32:15;;;;;;;8.38;6.20;;;17.30;1.00;;;;;;5069666;28;21060;-82
2021/08/05 04:34:40;;;;;;;6.28;5.78;;;17.20;1.00;;;;;;5068746;28;20111;-82
2021/08/05 04:37:06;;;;;;;9.52;5.78;;;17.20;1.00;;;;;;5070007;28;20044;-82
2021/08/05 04:39:32;;;;;;;7.22;6.40;;;17.20;1.00;;;;;;5070452;28;20027;-82
2021/08/05 04:41:58;;;;;;;8.93;6.22;;;17.30;1.00;;;;;;5070058;28;20135;-82
2021/08/05 04:44:24;;;;;;;6.38;5.78;;;17.30;1.00;;;;;;5069100;28;20047;-82
2021/08/05 04:46:49;;;;;;;6.68;6.07;;;17.30;1.00;;;;;;5070784;28;20059;-82
2021/08/05 04:49:15;;;;;;;7.90;6.72;;;17.30;1.00;;;;;;5052975;28;20533;-82
2021/08/05 04:51:41;;;;;;;6.30;5.70;;;17.30;1.00;;;;;;5068212;28;20059;-82
2021/08/05 04:54:06;;;;;;;7.15;6.22;;;17.40;1.00;;;;;;5068661;28;20104;-81
2021/08/05 04:56:33;;;;;;;6.53;5.85;;;17.40;1.00;;;;;;5070129;28;20028;-81
2021/08/05 04:58:59;;;;;;;7.93;6.68;;;17.50;1.00;;;;;;5069073;28;20082;-81
2021/08/05 05:01:25;;;;;;;9.05;6.25;;;17.40;1.00;;;;;;5071602;28;20089;-82
2021/08/05 05:03:51;;;;;;;8.77;5.97;;;17.40;1.00;;;;;;5069274;28;20032;-81
2021/08/05 05:06:17;;;;;;;6.15;5.55;;;17.30;1.00;;;;;;5070135;28;20043;-82
2021/08/05 05:08:42;;;;;;;8.73;5.65;;;17.40;1.00;;;;;;5069645;28;20020;-82
2021/08/05 05:11:08;;;;;;;9.95;6.05;;;17.50;1.00;;;;;;5067885;28;20400;-82
2021/08/05 05:13:34;;;;;;;8.82;6.50;;;17.50;1.00;;;;;;5067495;28;20111;-82
2021/08/05 05:15:59;;;;;;;7.78;5.85;;;17.50;1.00;;;;;;5070159;28;20040;-82
2021/08/05 05:18:25;;;;;;;6.93;5.28;;;17.50;1.00;;;;;;5068991;28;20056;-81
2021/08/05 05:20:52;;;;;;;8.50;5.53;;;17.60;1.00;;;;;;5069411;28;20040;-82
2021/08/05 05:23:19;;;;;;;6.03;5.53;;;17.60;1.00;;;;;;5069615;28;20102;-82
2021/08/05 05:25:45;;;;;;;8.60;6.15;;;17.70;1.00;;;;;;5070204;28;20036;-81
2021/08/05 05:28:12;;;;;;;9.18;5.72;;;17.70;1.00;;;;;;5070548;28;20029;-82
2021/08/05 05:30:38;;;;;;;8.13;6.10;;;17.90;1.00;;;;;;5068082;28;20071;-82
2021/08/05 05:33:04;;;;;;;6.70;5.82;;;17.90;1.00;;;;;;5067436;28;20051;-82
2021/08/05 05:35:31;;;;;;;6.32;5.38;;;18.00;1.00;;;;;;5069404;28;20055;-81
2021/08/05 05:37:58;;;;;;;7.18;6.07;;;18.00;1.00;;;;;;5069286;28;20507;-82
2021/08/05 05:40:24;;;;;;;7.10;5.20;;;18.10;1.00;;;;;;5071007;28;20083;-82
2021/08/05 05:42:50;;;;;;;7.43;6.40;;;18.10;1.00;;;;;;5069242;28;20033;-81
2021/08/05 05:45:17;;;;;;;6.72;5.78;;;18.20;1.00;;;;;;5069355;28;20028;-82
2021/08/05 05:47:43;;;;;;;6.53;5.32;;;18.20;1.00;;;;;;5070646;28;20041;-82
2021/08/05 05:50:10;;;;;;;6.18;5.50;;;18.30;1.00;;;;;;5072607;28;20491;-81
2021/08/05 05:52:37;;;;;;;5.85;5.35;;;18.40;1.00;;;;;;5075095;28;20028;-82
2021/08/05 05:55:03;;;;;;;6.13;5.53;;;18.50;1.00;;;;;;5073594;28;20033;-82
2021/08/05 05:57:28;;;;;;;8.90;5.60;;;18.40;1.00;;;;;;5073210;28;20039;-82
2021/08/05 05:59:54;;;;;;;7.38;5.55;;;18.40;1.00;;;;;;5073035;28;20025;-82
2021/08/05 06:02:19;;;;;;;7.47;5.78;;;18.40;1.00;;;;;;5072629;28;20040;-82
2021/08/05 06:04:45;;;;;;;5.90;5.32;;;18.50;1.00;;;;;;5073360;28;20114;-82
2021/08/05 06:07:11;;;;;;;7.88;5.50;;;18.50;1.00;;;;;;5073367;28;20082;-82
2021/08/05 06:09:36;;;;;;;7.13;6.22;;;18.50;1.00;;;;;;5071896;28;20020;-81
2021/08/05 06:12:02;;;;;;;7.88;5.72;;;18.40;1.00;;;;;;5071335;28;20431;-82
2021/08/05 06:14:28;;;;;;;5.95;5.35;;;18.40;1.00;;;;;;5072878;28;20190;-82
2021/08/05 06:16:53;;;;;;;6.05;5.30;;;18.50;1.00;;;;;;5072799;28;20389;-82
2021/08/05 06:19:19;;;;;;;7.30;5.93;;;18.50;1.00;;;;;;5074493;28;20039;-82
2021/08/05 06:21:45;;;;;;;6.47;5.72;;;18.40;1.00;;;;;;5071264;28;20515;-82
2021/08/05 06:24:12;;;;;;;7.03;5.85;;;18.50;1.00;;;;;;5072712;28;20013;-82
2021/08/05 06:26:40;;;;;;;5.97;5.22;;;18.40;1.00;;;;;;5073397;28;20427;-82
2021/08/05 06:29:07;;;;;;;6.47;5.40;;;18.50;1.00;;;;;;5072432;28;20029;-82
2021/08/05 06:31:34;;;;;;;8.27;5.70;;;18.50;1.00;;;;;;5074039;28;20032;-82
2021/08/05 06:34:00;;;;;;;6.18;5.60;;;18.60;1.00;;;;;;5071640;28;20538;-82
2021/08/05 06:36:25;;;;;;;9.80;6.38;;;18.80;1.00;;;;;;5072243;28;20033;-82
2021/08/05 06:38:51;;;;;;;6.00;5.28;;;18.90;1.00;;;;;;5073174;28;20438;-82
2021/08/05 06:41:17;;;;;;;7.25;5.20;;;19.10;1.00;;;;;;5072101;28;20044;-82
2021/08/05 06:43:42;;;;;;;7.07;5.45;;;19.00;1.00;;;;;;5074004;28;20086;-82
2021/08/05 06:46:08;;;;;;;9.77;5.97;;;19.30;1.00;;;;;;5054333;28;20468;-82
2021/08/05 06:48:34;;;;;;;6.63;5.38;;;19.50;1.00;;;;;;5069924;28;20032;-82
2021/08/05 06:50:59;;;;;;;6.90;4.85;;;19.70;1.00;;;;;;5070410;28;20473;-82
2021/08/05 06:53:25;;;;;;;7.28;4.60;;;20.00;1.00;;;;;;5072349;28;20420;-82
2021/08/05 06:55:50;;;;;;;5.55;4.72;;;20.10;1.00;;;;;;5072539;28;20074;-82
2021/08/05 06:58:19;;;;;;;7.78;4.38;;;19.90;1.00;;;;;;5071914;28;20400;-82
2021/08/05 07:00:46;;;;;;;6.05;5.05;;;19.80;1.00;;;;;;5071382;28;20036;-81
2021/08/05 07:03:11;;;;;;;6.95;4.90;;;19.90;1.00;;;;;;5070792;28;20044;-82
2021/08/05 07:05:37;;;;;;;5.65;5.13;;;19.90;1.00;;;;;;5072390;28;20028;-82
2021/08/05 07:08:03;;;;;;;5.40;4.90;;;20.10;1.00;;;;;;5071756;28;20028;-82
2021/08/05 07:10:29;;;;;;;6.72;4.60;;;20.30;1.00;;;;;;5073580;28;20024;-82
2021/08/05 07:12:54;;;;;;;7.00;4.90;;;20.40;1.00;;;;;;5071975;28;20033;-82
2021/08/05 07:15:20;;;;;;;6.93;4.75;;;20.50;1.00;;;;;;5071282;28;20047;-82
2021/08/05 07:17:46;;;;;;;6.82;4.15;;;20.70;1.00;;;;;;5070162;28;20492;-82
2021/08/05 07:20:17;;;;;;;3.75;2.45;;;20.60;1.00;;;;;;5071602;28;20103;-82
2021/08/05 07:22:43;;;;;;;5.18;2.90;;;20.50;1.00;;;;;;5073274;28;20028;-82
2021/08/05 07:25:11;;;;;;;3.08;2.72;;;20.40;1.00;;;;;;5071934;28;20389;-82
2021/08/05 07:27:37;;;;;;;3.75;2.50;;;20.20;1.00;;;;;;5070614;28;20081;-82
2021/08/05 07:30:05;;;;;;;2.90;2.50;;;20.30;1.00;;;;;;5069185;28;20024;-83
2021/08/05 07:32:31;;;;;;;2.97;2.28;;;20.20;1.00;;;;;;5070061;28;20041;-83
2021/08/05 07:34:56;;;;;;;4.18;2.50;;;20.20;1.00;;;;;;5071310;28;20587;-83
2021/08/05 07:37:22;;;;;;;3.15;2.78;;;20.40;1.00;;;;;;5073397;28;20029;-85
2021/08/05 07:39:48;;;;;;;2.97;2.35;;;20.80;1.00;;;;;;5069635;28;20035;-85
2021/08/05 07:42:15;;;;;;;4.25;1.98;;;21.30;1.00;;;;;;5071268;28;20041;-85
2021/08/05 07:44:41;;;;;;;1.73;1.63;;;21.70;1.00;;;;;;5070898;28;20021;-85
2021/08/05 07:47:08;;;;;;;1.88;1.77;;;21.90;1.00;;;;;;5055207;28;20512;-85
2021/08/05 07:49:34;;;;;;;3.63;2.05;;;21.80;1.00;;;;;;5072839;28;20108;-85
2021/08/05 07:52:00;;;;;;;3.38;1.90;;;21.60;1.00;;;;;;5071180;28;20115;-85
2021/08/05 07:54:25;;;;;;;2.05;1.60;;;21.50;1.00;;;;;;5071255;28;20028;-85
2021/08/05 07:56:51;;;;;;;5.53;1.90;;;21.40;1.00;;;;;;5070074;28;20040;-84
2021/08/05 07:59:17;;;;;;;1.50;1.40;;;21.60;1.00;;;;;;5070173;28;20037;-84
2021/08/05 08:01:42;;;;;;;1.88;1.50;;;21.70;1.00;;;;;;5072093;28;20060;-85
2021/08/05 08:04:08;;;;;;;3.28;1.38;;;21.70;1.00;;;;;;5070859;28;20028;-85
2021/08/05 08:06:34;;;;;;;2.63;1.60;;;21.80;1.00;;;;;;5069521;28;20124;-85
2021/08/05 08:08:59;;;;;;;1.38;1.20;;;21.70;1.00;;;;;;5068902;28;20027;-85
2021/08/05 08:11:25;;;;;;;2.30;1.27;;;21.50;1.00;;;;;;5068958;28;20032;-84
2021/08/05 08:13:51;;;;;;;2.83;1.38;;;21.20;1.00;;;;;;5070845;28;20032;-84
2021/08/05 08:16:21;;;;;;;3.95;1.95;;;21.20;1.00;;;;;;5072598;28;20032;-85
2021/08/05 08:18:48;;;;;;;1.33;1.20;;;21.50;1.00;;;;;;5070796;28;20036;-85
2021/08/05 08:21:14;;;;;;;2.47;1.63;;;21.20;1.00;;;;;;5070388;28;20016;-85
2021/08/05 08:23:41;;;;;;;4.15;1.55;;;21.40;1.00;;;;;;5070892;28;20111;-84
2021/08/05 08:26:06;;;;;;;1.83;1.40;;;21.60;1.00;;;;;;5068809;28;20440;-83
2021/08/05 08:28:32;;;;;;;1.52;1.42;;;22.00;1.00;;;;;;5071557;28;20029;-83
2021/08/05 08:30:58;;;;;;;1.52;1.20;;;22.30;1.00;;;;;;5070348;28;20105;-83
2021/08/05 08:33:24;;;;;;;3.92;1.20;;;22.50;1.00;;;;;;5052649;28;20099;-82
2021/08/05 08:35:49;;;;;;;2.08;1.15;;;22.70;1.00;;;;;;5069747;28;20021;-81
2021/08/05 08:38:15;;;;;;;2.17;1.00;;;22.70;1.00;;;;;;5070546;28;20491;-80
2021/08/05 08:40:41;;;;;;;2.78;1.00;;;22.70;1.00;;;;;;5071824;28;20113;-81
2021/08/05 08:43:06;;;;;;;1.40;1.13;;;22.60;1.00;;;;;;5070461;28;20476;-81
2021/08/05 08:45:32;;;;;;;1.10;1.00;;;22.50;1.00;;;;;;5070135;28;20060;-81
2021/08/05 08:47:59;;;;;;;3.10;0.98;;;22.50;1.00;;;;;;5069613;28;20056;-81
2021/08/05 08:50:27;;;;;;;2.20;0.90;;;22.50;1.00;;;;;;5068657;28;20031;-81
2021/08/05 08:52:55;;;;;;;2.55;0.90;;;22.50;1.00;;;;;;5070342;28;20055;-80
2021/08/05 08:55:22;;;;;;;2.15;0.70;;;22.30;1.00;;;;;;5070120;28;20489;-81
2021/08/05 08:57:51;;;;;;;1.35;0.60;;;22.00;1.00;;;;;;5069923;28;20025;-82
2021/08/05 09:00:16;;;;;;;2.05;0.60;;;22.10;1.00;;;;;;5069356;28;20020;-81
2021/08/05 09:02:46;;;;;;;2.10;0.80;;;21.90;1.00;;;;;;5069415;28;20048;-81
2021/08/05 09:05:12;;;;;;;0.63;0.63;;;21.80;1.00;;;;;;5068842;28;20043;-81
2021/08/05 09:07:38;;;;;;;1.08;0.70;;;21.70;1.00;;;;;;5071086;28;20374;-81
2021/08/05 09:10:05;;;;;;;4.07;0.60;;;21.80;1.00;;;;;;5069980;28;20027;-81
2021/08/05 09:12:31;;;;;;;1.90;0.60;;;21.60;1.00;;;;;;5069582;28;20119;-81
2021/08/05 09:14:57;;;;;;;0.98;0.55;;;21.50;1.00;;;;;;5070145;28;20021;-81
2021/08/05 09:17:28;;;;;;;1.10;0.70;;;21.50;1.00;;;;;;5069586;28;20090;-81
2021/08/05 09:19:56;;;;;;;1.00;0.60;;;21.90;1.00;;;;;;5070550;28;20546;-80
2021/08/05 09:22:38;;;;;;;2.25;0.63;;;22.10;1.00;;;;;;5070812;28;20032;-81
2021/08/05 09:25:22;;;;;;;0.68;0.50;;;22.20;1.00;;;;;;5052049;28;20111;-82
2021/08/05 09:27:49;;;;;;;3.45;0.50;;;22.30;1.00;;;;;;5050492;28;20444;-81
2021/08/05 09:30:36;;;;;;;0.77;0.57;;;22.60;1.00;;;;;;5067874;28;20127;-81
2021/08/05 09:33:08;;;;;;;0.95;0.70;;;23.50;1.00;;;;;;5069379;28;20111;-81
2021/08/05 09:35:35;;;;;;;3.42;0.95;;;24.00;1.00;;;;;;5068437;28;20504;-80
2021/08/05 09:38:20;;;;;;;1.17;0.75;;;24.60;99.90;;;;;;5069486;28;20044;-81
2021/08/05 09:40:46;;;;;;;2.53;1.17;;;25.10;99.90;;;;;;5065589;28;20063;-83
2021/08/05 09:43:22;;;;;;;1.08;0.57;;;24.90;99.90;;;;;;5069743;28;20033;-82
2021/08/05 09:45:47;;;;;;;1.38;0.60;;;25.30;99.90;;;;;;5066783;28;20021;-81
2021/08/05 09:48:13;;;;;;;1.73;0.70;;;25.30;99.90;;;;;;5069090;28;20093;-82
2021/08/05 09:50:38;;;;;;;1.83;0.55;;;25.00;99.90;;;;;;5069392;28;20023;-82
2021/08/05 09:53:11;;;;;;;1.25;0.63;;;25.20;99.90;;;;;;5071284;28;20021;-81
2021/08/05 09:55:40;;;;;;;1.45;0.52;;;24.50;99.90;;;;;;5065198;28;20039;-81
2021/08/05 09:58:06;;;;;;;0.85;0.60;;;24.10;99.90;;;;;;5069963;28;20485;-81
2021/08/05 10:00:47;;;;;;;2.53;0.73;;;23.90;99.90;;;;;;5068802;28;20032;-82
2021/08/05 10:03:29;;;;;;;1.63;0.45;;;23.80;99.90;;;;;;5067882;28;20040;-82
2021/08/05 10:05:58;;;;;;;2.50;0.65;;;24.30;99.90;;;;;;5063413;28;20032;-82
2021/08/05 10:08:37;;;;;;;0.88;0.68;;;24.50;99.90;;;;;;5069056;28;20031;-82
2021/08/05 10:11:04;;;;;;;1.02;0.50;;;25.00;99.90;;;;;;5068378;28;20029;-82
2021/08/05 10:13:35;;;;;;;1.33;0.70;;;25.40;99.90;;;;;;5070829;28;20393;-82
2021/08/05 10:16:02;;;;;;;2.40;0.80;;;25.50;99.90;;;;;;5068911;28;20056;-81
2021/08/05 10:18:32;;;;;;;0.85;0.52;;;25.40;99.90;;;;;;5069073;28;20033;-82
2021/08/05 10:21:01;;;;;;;1.40;0.55;;;25.60;99.90;;;;;;5069295;28;20025;-82
2021/08/05 10:23:28;;;;;;;0.77;0.70;;;26.70;99.90;;;;;;5069175;28;20016;-82
2021/08/05 10:26:00;;;;;;;1.02;0.70;;;26.40;99.90;;;;;;5067997;28;20035;-82
2021/08/05 10:28:27;;;;;;;0.60;0.60;;;26.60;99.90;;;;;;5069477;28;20021;-82
2021/08/05 10:30:55;;;;;;;0.60;0.60;;;26.40;99.90;;;;;;5068826;28;20492;-82
2021/08/05 10:33:21;;;;;;;0.50;0.50;;;26.30;99.90;;;;;;5067567;28;20090;-81
2021/08/05 10:35:48;;;;;;;0.68;0.57;;;26.10;99.90;;;;;;5072647;28;20078;-82
2021/08/05 10:38:19;;;;;;;0.60;0.60;;;26.00;99.90;;;;;;5072283;28;20460;-82
2021/08/05 10:40:47;;;;;;;0.60;0.60;;;25.90;99.90;;;;;;5072690;28;20024;-82
2021/08/05 10:43:13;;;;;;;4.28;0.70;;;26.00;99.90;;;;;;5071507;28;20028;-82
2021/08/05 10:45:39;;;;;;;0.77;0.73;;;25.40;99.90;;;;;;5072287;28;20039;-81
2021/08/05 10:48:06;;;;;;;1.73;0.80;;;25.60;99.90;;;;;;5054455;28;20422;-82
2021/08/05 10:50:42;;;;;;;0.88;0.77;;;25.40;99.90;;;;;;5072647;28;20087;-82
2021/08/05 10:53:30;;;;;;;0.68;0.68;;;25.60;99.90;;;;;;5055744;28;20028;-82
2021/08/05 10:56:22;;;;;;;1.38;0.80;;;25.60;99.90;;;;;;5067034;28;20396;-82
2021/08/05 10:59:08;;;;;;;1.23;0.85;;;26.20;99.90;;;;;;5070709;28;20074;-82
2021/08/05 11:01:53;;;;;;;1.38;0.60;;;26.80;99.90;;;;;;5073131;28;20055;-82
2021/08/05 11:04:39;;;;;;;0.80;0.70;;;26.90;99.90;;;;;;5073704;28;20416;-82
2021/08/05 11:07:25;;;;;;;0.75;0.75;;;27.20;99.90;;;;;;5070215;28;20086;-82
2021/08/05 11:09:52;;;;;;;4.22;0.63;;;27.40;99.90;;;;;;5070643;28;20028;-82
2021/08/05 11:12:34;;;;;;;1.67;0.68;;;27.60;99.90;;;;;;5053784;28;20404;-82
2021/08/05 11:15:00;;;;;;;1.02;0.60;;;29.70;99.90;;;;;;5071645;28;20021;-82
2021/08/05 11:17:26;;;;;;;1.00;0.60;;;31.30;99.90;;;;;;5071725;28;20477;-82
2021/08/05 11:20:16;;;;;;;3.72;0.70;;;34.10;99.90;;;;;;5073079;28;20025;-82
2021/08/05 11:22:41;;;;;;;0.80;0.80;;;31.10;99.90;;;;;;5073176;28;20044;-81
2021/08/05 11:25:08;;;;;;;2.47;0.65;;;29.10;99.90;;;;;;5070601;28;20032;-82
2021/08/05 11:27:33;;;;;;;0.68;0.68;;;28.40;99.90;;;;;;5071366;28;20028;-82
2021/08/05 11:29:59;;;;;;;0.93;0.80;;;32.20;99.90;;;;;;5071496;28;20151;-82
2021/08/05 11:32:25;;;;;;;0.70;0.70;;;35.70;99.90;;;;;;5070490;28;20028;-82
2021/08/05 11:34:54;;;;;;;1.10;0.90;;;33.20;99.90;;;;;;5072302;28;20028;-82
2021/08/05 11:37:20;;;;;;;0.70;0.70;;;33.40;99.90;;;;;;5071314;28;20032;-82
2021/08/05 11:39:50;;;;;;;0.68;0.68;;;35.10;99.90;;;;;;5071132;28;20051;-82
2021/08/05 11:42:20;;;;;;;0.93;0.68;;;37.20;99.90;;;;;;5070752;28;20043;-82
2021/08/05 11:44:48;;;;;;;2.03;0.80;;;34.00;99.90;;;;;;5071065;28;20021;-82
2021/08/05 11:47:19;;;;;;;1.33;0.73;;;34.50;99.90;;;;;;5070293;28;20045;-83
2021/08/05 11:49:48;;;;;;;4.50;0.90;;;32.90;99.90;;;;;;5072396;28;20469;-82
2021/08/05 11:52:26;;;;;;;0.82;0.70;;;30.80;99.90;;;;;;5071847;28;20093;-82
2021/08/05 11:54:56;;;;;;;3.33;0.88;;;29.70;99.90;;;;;;5070834;28;20485;-82
2021/08/05 11:57:23;;;;;;;0.88;0.70;;;29.10;99.90;;;;;;5070978;28;20033;-82
2021/08/05 11:59:51;;;;;;;1.00;0.90;;;29.10;99.90;;;;;;5069472;28;20028;-82
2021/08/05 12:02:21;;;;;;;0.63;0.63;;;28.60;99.90;;;;;;5068800;28;20056;-82
2021/08/05 12:04:48;;;;;;;3.40;0.90;;;28.40;99.90;;;;;;5071834;28;20024;-83
2021/08/05 12:07:28;;;;;;;1.90;0.90;;;28.20;99.90;;;;;;5071266;28;20035;-82
2021/08/05 12:10:05;;;;;;;1.33;1.02;;;28.40;99.90;;;;;;5070350;28;20039;-82
2021/08/05 12:12:52;;;;;;;0.95;0.80;;;29.70;99.90;;;;;;5070375;28;20489;-82
2021/08/05 12:15:23;;;;;;;1.17;0.70;;;30.10;99.90;;;;;;5069424;28;20024;-82
2021/08/05 12:17:51;;;;;;;1.60;0.77;;;34.20;99.90;;;;;;5070638;28;20409;-82
2021/08/05 12:20:29;;;;;;;1.05;0.80;;;33.00;99.90;;;;;;5070881;28;20031;-82
2021/08/05 12:23:04;;;;;;;0.80;0.80;;;36.70;99.90;;;;;;5052426;28;20430;-83
2021/08/05 12:25:37;;;;;;;1.90;1.00;;;36.90;99.90;;;;;;5072018;28;20392;-82
2021/08/05 12:28:10;;;;;;;0.70;0.70;;;38.50;99.90;;;;;;5070251;28;20033;-82
2021/08/05 12:30:41;;;;;;;1.83;0.82;;;40.20;99.90;;;;;;5069985;28;20028;-82
2021/08/05 12:33:29;;;;;;;3.15;0.90;;;40.50;99.90;;;;;;5069899;28;20467;-83
2021/08/05 12:36:00;;;;;;;1.95;0.88;;;39.40;99.90;;;;;;5069586;28;20032;-83
2021/08/05 12:38:27;;;;;;;1.42;0.90;;;36.90;99.90;;;;;;5068765;28;20110;-82
2021/08/05 12:40:54;;;;;;;1.10;1.00;;;34.40;99.90;;;;;;5070708;28;20082;-83
2021/08/05 12:43:20;;;;;;;1.20;1.10;;;35.70;99.90;;;;;;5069283;28;20056;-83
2021/08/05 12:45:48;;;;;;;1.08;0.90;;;37.90;99.90;;;;;;5066981;28;20484;-82
2021/08/05 12:48:15;;;;;;;1.08;0.90;;;39.00;99.90;;;;;;5070248;28;20082;-83
2021/08/05 12:50:48;;;;;;;2.40;1.10;;;36.10;99.90;;;;;;5069921;28;20070;-82
2021/08/05 12:53:32;;;;;;;1.00;0.82;;;36.90;99.90;;;;;;5054520;28;20025;-83
2021/08/05 12:56:01;;;;;;;2.50;0.90;;;35.80;99.90;;;;;;5051800;28;20500;-82
2021/08/05 12:58:28;;;;;;;2.75;1.05;;;38.00;99.90;;;;;;5071414;28;20033;-82
2021/08/05 13:01:20;;;;;;;1.30;1.00;;;39.30;99.90;;;;;;5069322;28;20547;-82